Wake Forest, NC

7:43 PM EST on February 12, 2016 (GMT -0500)
Flaherty Farms | | Change Station
CLOSE
Current Station
Personal Weather Station
Location: Wake Forest, NC
Elevation: 410 ft
Nearby Weather Stations

Elev 410 ft 35.99 °N, 78.49 °W | Updated 3 minutes ago

Overcast
Overcast
30.1 °F
Feels Like 30 °F
N
0.0
Wind Variable Wind from WSW
Gusts 2.0 mph

Today
High -- | Low -- °F
--% Chance of Precip.
Yesterday
High -- | Low -- °F
Precip. -- in
Pressure 30.07 in
Visibility 10.0 miles
Clouds Overcast 7000 ft
Windchill 30 °F
Dew Point 22 °F
Humidity 71%
Rainfall 0.00 in
Snow Depth Not available.
7:05 AM 5:52 PM
Waxing Crescent, 25% visible
METAR KLHZ 130035Z AUTO 00000KT 10SM OVC070 M01/M06 A3007 RMK AO2
Pressure 30.07 in
Visibility 10.0 miles
Clouds Overcast 7000 ft
Windchill 30 °F
Dew Point 22 °F
Humidity 71%
Rainfall 0.00 in
Snow Depth Not available.
7:05 AM 5:52 PM
Waxing Crescent, 25% visible
METAR KLHZ 130035Z AUTO 00000KT 10SM OVC070 M01/M06 A3007 RMK AO2

10-Day Weather Forecast

Almanac

Astronomy

Feb. 12, 2016 Rise Set
Actual Time
Civil Twilight
Nautical Twilight
Astronomical Twilight
Moon
Length of Visible Light
Length of Day
Tomorrow will be .
, % of the Moon is Illuminated

Today's Extremes

State Highs State Lows

Community

WunderPhotos

Upload Photos

1,892,444 photos uploaded!

WunderBlog® & News

Nearby

Air Quality

  Air Quality AQ Index Pollutant
Not available.

Snow Depth

Station Depth Elevation

Earthquake Activity

City Distance Mag. Time & Date
Minimum magnitude displayed is 2.5.

Coastal Water Temperatures

Place Temperature

Stations

Nearby Weather Stations

Station Location Temp. Windchill Dew Point Humidity Wind Precip. Elev Updated Type
                   

Watches & Warnings

Special Statement
Issued: 11:47 AM EST Feb. 12, 2016 – National Weather Service

... Increased fire danger for southern portions of central North
Carolina on Saturday...

There will be an increased risk of fire danger on Saturday as
minimum rh values fall into the 20-25 percent range and wind gusts
could reach 25-30 mph during the afternoon hours.


Ellis


1147 am EST Fri Feb 12 2016

... Increased fire danger for southern portions of central North
Carolina on Saturday...

There will be an increased risk of fire danger on Saturday as
minimum rh values fall into the 20-25 percent range and wind gusts
could reach 25-30 mph during the afternoon hours.


Ellis